createdAt,value
2018-06-20T00:00:33.352Z,21.22
2018-06-20T00:03:01.854Z,21.02
2018-06-20T00:05:30.336Z,21.00
2018-06-20T00:07:58.712Z,20.94
2018-06-20T00:10:27.433Z,20.92
2018-06-20T00:12:55.754Z,20.88
2018-06-20T00:15:24.361Z,20.94
2018-06-20T00:17:52.440Z,20.92
2018-06-20T00:20:21.027Z,20.91
2018-06-20T00:22:49.433Z,20.89
2018-06-20T00:25:17.981Z,20.93
2018-06-20T00:27:47.393Z,20.98
2018-06-20T00:30:15.873Z,21.15
2018-06-20T00:32:44.254Z,21.19
2018-06-20T00:35:12.722Z,21.18
2018-06-20T00:37:41.131Z,21.26
2018-06-20T00:40:09.592Z,21.38
2018-06-20T00:42:38.902Z,21.54
2018-06-20T00:45:07.538Z,21.58
2018-06-20T00:47:35.947Z,21.57
2018-06-20T00:50:04.541Z,21.70
2018-06-20T00:52:33.156Z,21.74
2018-06-20T00:55:01.501Z,21.76
2018-06-20T00:57:30.111Z,21.86
2018-06-20T00:59:58.490Z,21.92
2018-06-20T01:02:26.806Z,21.89
2018-06-20T01:04:55.331Z,21.94
2018-06-20T01:07:24.617Z,21.89
2018-06-20T01:09:53.110Z,22.00
2018-06-20T01:12:21.485Z,22.03
2018-06-20T01:14:50.076Z,22.08
2018-06-20T01:17:18.542Z,22.18
2018-06-20T01:19:47.146Z,22.12
2018-06-20T01:22:15.617Z,22.20
2018-06-20T01:24:44.097Z,22.19
2018-06-20T01:27:12.684Z,22.19
2018-06-20T01:29:41.061Z,22.17
2018-06-20T01:32:09.547Z,22.17
2018-06-20T01:34:38.035Z,22.36
2018-06-20T01:37:06.492Z,22.28
2018-06-20T01:39:34.782Z,22.26
2018-06-20T01:42:03.298Z,22.16
2018-06-20T01:44:31.875Z,22.14
2018-06-20T01:47:00.459Z,22.14
2018-06-20T01:49:28.801Z,22.19
2018-06-20T01:51:57.389Z,22.21
2018-06-20T01:54:25.781Z,22.16
2018-06-20T01:56:54.353Z,22.27
2018-06-20T01:59:22.742Z,22.20
2018-06-20T02:01:51.121Z,22.15
2018-06-20T02:04:19.535Z,22.17
2018-06-20T02:06:47.850Z,22.18
2018-06-20T02:09:16.246Z,22.12
2018-06-20T02:11:44.432Z,22.14
2018-06-20T02:14:12.914Z,22.14
2018-06-20T02:16:41.495Z,22.06
2018-06-20T02:19:09.872Z,22.11
2018-06-20T02:21:38.453Z,22.12
2018-06-20T02:24:06.738Z,22.12
2018-06-20T02:26:35.237Z,22.16
2018-06-20T02:29:03.699Z,22.22
2018-06-20T02:31:32.281Z,22.00
2018-06-20T02:34:00.791Z,21.97
2018-06-20T02:36:32.552Z,21.94
2018-06-20T02:39:02.208Z,21.95
2018-06-20T02:41:30.817Z,21.91
2018-06-20T02:43:59.288Z,21.96
2018-06-20T02:46:27.682Z,21.98
2018-06-20T02:48:56.443Z,21.78
2018-06-20T02:51:24.950Z,21.70
2018-06-20T02:53:53.420Z,21.85
2018-06-20T02:56:21.909Z,21.90
2018-06-20T02:58:50.270Z,21.89
2018-06-20T03:01:18.669Z,21.77
2018-06-20T03:03:47.072Z,21.65
2018-06-20T03:06:15.532Z,21.69
2018-06-20T03:08:46.659Z,21.71
2018-06-20T03:11:15.156Z,21.72
2018-06-20T03:13:44.355Z,21.77
2018-06-20T03:16:12.844Z,21.84
2018-06-20T03:18:41.217Z,21.94
2018-06-20T03:21:09.693Z,21.87
2018-06-20T03:23:38.057Z,21.91
2018-06-20T03:26:06.446Z,22.05
2018-06-20T03:28:34.831Z,22.01
2018-06-20T03:31:03.304Z,22.09
2018-06-20T03:33:31.826Z,22.16
2018-06-20T03:36:00.177Z,22.12
2018-06-20T03:38:28.549Z,22.12
2018-06-20T03:40:56.925Z,22.10
2018-06-20T03:43:25.270Z,22.18
2018-06-20T03:45:53.573Z,21.98
2018-06-20T03:48:22.073Z,22.18
2018-06-20T03:50:50.442Z,22.14
2018-06-20T03:53:18.953Z,22.28
2018-06-20T03:55:47.418Z,22.24
2018-06-20T03:58:15.994Z,22.24
2018-06-20T04:00:44.273Z,22.23
2018-06-20T04:03:12.655Z,22.25
2018-06-20T04:05:41.177Z,22.14
2018-06-20T04:08:09.641Z,22.11
2018-06-20T04:10:38.004Z,22.03
2018-06-20T04:13:06.482Z,22.17
2018-06-20T04:15:34.835Z,21.99
2018-06-20T04:18:03.341Z,22.04
2018-06-20T04:20:31.805Z,22.10
2018-06-20T04:23:00.200Z,22.15
2018-06-20T04:25:28.598Z,22.26
2018-06-20T04:27:57.112Z,22.28
2018-06-20T04:30:25.441Z,22.23
2018-06-20T04:32:53.713Z,22.42
2018-06-20T04:35:22.755Z,22.52
2018-06-20T04:37:51.277Z,22.58
2018-06-20T04:40:19.669Z,22.49
2018-06-20T04:42:48.253Z,22.50
2018-06-20T04:45:16.873Z,22.58
2018-06-20T04:47:45.322Z,22.52
2018-06-20T04:50:13.801Z,22.62
2018-06-20T04:52:42.501Z,22.79
2018-06-20T04:55:10.842Z,22.92
2018-06-20T04:57:39.350Z,23.00
2018-06-20T05:00:08.910Z,23.06
2018-06-20T05:02:37.322Z,23.10
2018-06-20T05:05:05.948Z,23.16
2018-06-20T05:07:35.389Z,23.20
2018-06-20T05:10:03.701Z,23.25
2018-06-20T05:12:32.305Z,23.35
2018-06-20T05:15:01.282Z,23.62
2018-06-20T05:17:29.848Z,23.56
2018-06-20T05:19:58.141Z,23.61
2018-06-20T05:22:26.629Z,23.58
2018-06-20T05:24:55.034Z,23.69
2018-06-20T05:27:23.692Z,23.66
2018-06-20T05:29:52.175Z,23.79
2018-06-20T05:32:20.654Z,23.72
2018-06-20T05:34:49.126Z,23.78
2018-06-20T05:37:17.719Z,23.81
2018-06-20T05:39:46.302Z,23.83
2018-06-20T05:42:15.015Z,23.88
2018-06-20T05:44:43.665Z,23.94
2018-06-20T05:47:12.162Z,23.99
2018-06-20T05:49:40.630Z,24.11
2018-06-20T05:52:09.121Z,24.17
2018-06-20T05:54:37.481Z,24.21
2018-06-20T05:57:05.873Z,24.36
2018-06-20T05:59:34.284Z,24.46
2018-06-20T06:02:02.840Z,24.29
2018-06-20T06:04:31.635Z,24.30
2018-06-20T06:07:00.007Z,24.42
2018-06-20T06:09:28.572Z,24.52
2018-06-20T06:11:57.090Z,24.48
2018-06-20T06:14:25.448Z,24.61
2018-06-20T06:16:53.859Z,24.79
2018-06-20T06:19:22.193Z,24.77
2018-06-20T06:21:50.581Z,24.80
2018-06-20T06:24:19.095Z,24.83
2018-06-20T06:26:47.550Z,24.95
2018-06-20T06:29:16.343Z,25.06
2018-06-20T06:31:44.716Z,25.10
2018-06-20T06:34:13.286Z,25.23
2018-06-20T06:36:42.247Z,25.28
2018-06-20T06:39:11.662Z,25.31
2018-06-20T06:41:40.189Z,25.34
2018-06-20T06:44:08.693Z,25.44
2018-06-20T06:46:37.136Z,25.50
2018-06-20T06:49:06.068Z,25.52
2018-06-20T06:51:34.708Z,25.59
2018-06-20T06:54:03.096Z,25.61
2018-06-20T06:56:31.471Z,25.71
2018-06-20T06:58:59.970Z,25.73
2018-06-20T07:01:28.338Z,25.77
2018-06-20T07:03:56.823Z,25.82
2018-06-20T07:06:25.195Z,25.89
2018-06-20T07:08:53.788Z,26.05
2018-06-20T07:11:22.269Z,26.04
2018-06-20T07:13:50.538Z,26.13
2018-06-20T07:16:19.023Z,26.25
2018-06-20T07:18:47.430Z,26.28
2018-06-20T07:21:15.869Z,26.35
2018-06-20T07:23:44.280Z,26.41
2018-06-20T07:26:12.861Z,26.45
2018-06-20T07:28:41.386Z,26.43
2018-06-20T07:31:09.913Z,26.58
2018-06-20T07:33:38.507Z,26.56
2018-06-20T07:36:07.974Z,26.74
2018-06-20T07:38:36.427Z,26.75
2018-06-20T07:41:04.857Z,26.78
2018-06-20T07:43:33.358Z,26.80
2018-06-20T07:46:02.782Z,26.77
2018-06-20T07:48:31.124Z,26.81
2018-06-20T07:51:00.033Z,26.82
2018-06-20T07:53:28.397Z,26.87
2018-06-20T07:55:56.874Z,26.87
2018-06-20T07:58:30.624Z,26.90
2018-06-20T08:01:04.640Z,27.00
2018-06-20T08:03:38.477Z,27.01
2018-06-20T08:06:12.392Z,27.19
2018-06-20T08:08:46.176Z,27.15
2018-06-20T08:11:20.829Z,27.12
2018-06-20T08:13:54.878Z,27.16
2018-06-20T08:16:28.905Z,27.24
2018-06-20T08:19:02.763Z,27.26
2018-06-20T08:21:31.267Z,27.25
2018-06-20T08:23:59.620Z,27.34
2018-06-20T08:26:28.328Z,27.35
2018-06-20T08:28:56.908Z,27.41
2018-06-20T08:31:25.168Z,27.53
2018-06-20T08:33:53.877Z,27.46
2018-06-20T08:36:22.380Z,27.52
2018-06-20T08:38:50.829Z,27.55
2018-06-20T08:41:19.422Z,27.38
2018-06-20T08:43:47.875Z,27.67
2018-06-20T08:46:16.517Z,27.55
2018-06-20T08:48:44.949Z,27.63
2018-06-20T08:51:13.241Z,27.70
2018-06-20T08:53:41.830Z,27.70
2018-06-20T08:56:10.101Z,27.78
2018-06-20T08:58:38.688Z,27.89
2018-06-20T09:01:07.217Z,27.98
2018-06-20T09:03:35.645Z,28.02
2018-06-20T09:06:09.391Z,27.90
2018-06-20T09:08:43.066Z,27.97
2018-06-20T09:11:16.928Z,28.24
2018-06-20T09:13:50.768Z,28.04
2018-06-20T09:17:23.594Z,28.02
2018-06-20T09:19:53.126Z,27.86
2018-06-20T09:22:22.380Z,27.98
2018-06-20T09:24:50.653Z,27.95
2018-06-20T09:27:19.286Z,28.04
2018-06-20T09:29:47.814Z,27.99
2018-06-20T09:32:16.666Z,28.01
2018-06-20T09:34:45.646Z,28.12
2018-06-20T09:37:13.980Z,28.08
2018-06-20T09:39:42.538Z,28.12
2018-06-20T09:42:10.957Z,28.41
2018-06-20T09:44:39.491Z,28.44
2018-06-20T09:47:07.909Z,28.46
2018-06-20T09:49:36.075Z,28.61
2018-06-20T09:52:04.568Z,28.62
2018-06-20T09:54:34.055Z,28.46
2018-06-20T09:57:02.532Z,28.35
2018-06-20T09:59:36.245Z,28.25
2018-06-20T10:02:10.068Z,28.32
2018-06-20T10:04:43.911Z,28.38
2018-06-20T10:07:17.795Z,28.41
2018-06-20T10:09:51.985Z,28.45
2018-06-20T10:13:24.891Z,28.50
2018-06-20T10:15:52.953Z,28.58
2018-06-20T10:18:21.590Z,28.66
2018-06-20T10:20:49.546Z,28.66
2018-06-20T10:23:17.624Z,28.64
2018-06-20T10:25:45.857Z,28.66
2018-06-20T10:28:14.416Z,28.66
2018-06-20T10:30:42.720Z,28.70
2018-06-20T10:33:11.073Z,28.69
2018-06-20T10:35:40.076Z,28.61
2018-06-20T10:38:08.557Z,28.58
2018-06-20T10:40:37.079Z,28.63
2018-06-20T10:43:05.528Z,28.49
2018-06-20T10:45:39.384Z,28.67
2018-06-20T10:48:16.160Z,28.85
2018-06-20T10:50:44.925Z,28.78
2018-06-20T10:53:13.381Z,28.81
2018-06-20T10:55:42.169Z,28.89
2018-06-20T10:58:16.102Z,29.00
2018-06-20T11:00:50.166Z,29.17
2018-06-20T11:03:24.086Z,29.18
2018-06-20T11:05:57.963Z,29.09
2018-06-20T11:08:31.769Z,29.09
2018-06-20T11:11:05.525Z,29.08
2018-06-20T11:13:34.122Z,29.21
2018-06-20T11:16:02.590Z,29.27
2018-06-20T11:18:32.361Z,29.14
2018-06-20T11:21:00.777Z,29.17
2018-06-20T11:23:30.359Z,29.12
2018-06-20T11:25:59.509Z,29.32
2018-06-20T11:28:28.577Z,29.41
2018-06-20T11:30:56.952Z,29.25
2018-06-20T11:33:25.443Z,29.19
2018-06-20T11:35:53.916Z,29.13
2018-06-20T11:38:22.914Z,29.32
2018-06-20T11:40:51.405Z,29.36
2018-06-20T11:43:19.672Z,29.27
2018-06-20T11:45:53.412Z,29.22
2018-06-20T11:48:22.113Z,29.17
2018-06-20T11:50:50.351Z,29.25
2018-06-20T11:53:18.997Z,29.25
2018-06-20T11:55:47.641Z,29.22
2018-06-20T11:58:21.616Z,29.27
2018-06-20T12:00:56.553Z,29.29
2018-06-20T12:03:30.426Z,29.36
2018-06-20T12:06:06.209Z,29.35
2018-06-20T12:08:40.488Z,29.52
2018-06-20T12:11:14.778Z,29.48
2018-06-20T12:13:48.570Z,29.41
2018-06-20T12:16:19.094Z,29.51
2018-06-20T12:18:53.124Z,29.45
2018-06-20T12:21:26.995Z,29.75
2018-06-20T12:24:00.602Z,29.70
2018-06-20T12:26:40.536Z,29.55
2018-06-20T12:29:14.147Z,29.38
2018-06-20T12:31:48.002Z,29.49
2018-06-20T12:34:21.872Z,29.51
2018-06-20T12:36:55.668Z,29.59
2018-06-20T12:39:39.378Z,29.68
2018-06-20T12:42:13.603Z,29.60
2018-06-20T12:44:49.928Z,29.55
2018-06-20T12:47:23.445Z,29.47
2018-06-20T12:50:09.706Z,29.42
2018-06-20T12:52:38.295Z,29.59
2018-06-20T12:55:06.369Z,29.60
2018-06-20T12:57:34.294Z,29.65
2018-06-20T13:00:02.301Z,29.72
2018-06-20T13:02:30.858Z,29.87
2018-06-20T13:04:59.352Z,29.76
2018-06-20T13:07:27.830Z,29.73
2018-06-20T13:09:56.453Z,29.68
2018-06-20T13:12:25.021Z,29.72
2018-06-20T13:14:53.558Z,29.87
2018-06-20T13:17:21.954Z,29.87
2018-06-20T13:19:50.474Z,29.88
2018-06-20T13:22:19.034Z,29.79
2018-06-20T13:24:48.346Z,29.79
2018-06-20T13:27:22.298Z,29.87
2018-06-20T13:29:55.993Z,29.83
2018-06-20T13:32:29.913Z,29.81
2018-06-20T13:35:04.283Z,29.82
2018-06-20T13:37:38.291Z,29.83
2018-06-20T13:40:12.213Z,29.83
2018-06-20T13:42:45.815Z,29.87
2018-06-20T13:45:19.598Z,29.82
2018-06-20T13:47:53.407Z,29.90
2018-06-20T13:50:21.807Z,29.93
2018-06-20T13:52:50.330Z,30.09
2018-06-20T13:55:18.646Z,30.00
2018-06-20T13:57:47.302Z,29.98
2018-06-20T14:00:17.797Z,29.98
2018-06-20T14:02:46.165Z,30.02
2018-06-20T14:05:15.748Z,29.91
2018-06-20T14:07:44.185Z,29.83
2018-06-20T14:10:15.674Z,29.86
2018-06-20T14:12:44.981Z,29.88
2018-06-20T14:15:13.614Z,29.85
2018-06-20T14:17:42.042Z,29.90
2018-06-20T14:20:16.078Z,29.99
2018-06-20T14:22:44.582Z,29.93
2018-06-20T14:25:13.116Z,29.88
2018-06-20T14:27:41.704Z,29.88
2018-06-20T14:30:10.165Z,29.84
2018-06-20T14:32:43.870Z,29.78
2018-06-20T14:35:17.838Z,29.97
2018-06-20T14:37:51.554Z,30.05
2018-06-20T14:40:25.405Z,30.13
2018-06-20T14:43:02.157Z,30.21
2018-06-20T14:45:35.917Z,30.19
2018-06-20T14:48:07.533Z,30.18
2018-06-20T14:50:36.258Z,30.21
2018-06-20T14:53:05.358Z,30.06
2018-06-20T14:55:34.072Z,30.02
2018-06-20T14:58:02.426Z,29.93
2018-06-20T15:00:31.110Z,29.80
2018-06-20T15:02:59.773Z,29.79
2018-06-20T15:05:28.042Z,29.76
2018-06-20T15:07:56.422Z,29.81
2018-06-20T15:10:24.802Z,29.92
2018-06-20T15:12:53.596Z,29.85
2018-06-20T15:15:22.075Z,29.84
2018-06-20T15:17:50.507Z,29.70
2018-06-20T15:20:19.068Z,29.76
2018-06-20T15:22:48.162Z,29.62
2018-06-20T15:25:20.894Z,29.63
2018-06-20T15:27:54.737Z,29.77
2018-06-20T15:30:28.407Z,29.70
2018-06-20T15:33:01.925Z,29.79
2018-06-20T15:35:35.712Z,29.71
2018-06-20T15:38:09.389Z,29.85
2018-06-20T15:40:53.507Z,29.84
2018-06-20T15:43:29.229Z,29.95
2018-06-20T15:46:04.014Z,29.94
2018-06-20T15:48:51.480Z,30.10
2018-06-20T15:51:23.553Z,29.95
2018-06-20T15:53:55.459Z,29.93
2018-06-20T15:56:25.790Z,30.01
2018-06-20T15:58:54.099Z,29.90
2018-06-20T16:01:22.532Z,29.81
2018-06-20T16:03:50.985Z,29.82
2018-06-20T16:06:19.602Z,29.81
2018-06-20T16:08:53.601Z,29.81
2018-06-20T16:11:22.066Z,29.78
2018-06-20T16:13:50.521Z,29.66
2018-06-20T16:16:18.771Z,29.68
2018-06-20T16:18:52.710Z,29.67
2018-06-20T16:21:26.420Z,29.78
2018-06-20T16:24:00.069Z,29.68
2018-06-20T16:26:33.890Z,29.78
2018-06-20T16:29:07.540Z,29.76
2018-06-20T16:31:35.776Z,29.78
2018-06-20T16:34:04.299Z,29.89
2018-06-20T16:36:32.933Z,29.65
2018-06-20T16:39:02.081Z,28.83
2018-06-20T16:41:31.686Z,28.15
2018-06-20T16:43:59.965Z,27.62
2018-06-20T16:46:28.350Z,27.63
2018-06-20T16:48:57.078Z,27.50
2018-06-20T16:51:25.548Z,27.39
2018-06-20T16:53:54.037Z,27.70
2018-06-20T16:56:22.578Z,27.74
2018-06-20T16:58:50.899Z,27.55
2018-06-20T17:01:24.675Z,27.57
2018-06-20T17:03:53.245Z,27.42
2018-06-20T17:06:21.855Z,27.41
2018-06-20T17:08:50.224Z,27.44
2018-06-20T17:11:18.574Z,27.44
2018-06-20T17:13:52.337Z,27.55
2018-06-20T17:16:26.275Z,27.60
2018-06-20T17:19:00.004Z,27.83
2018-06-20T17:21:33.927Z,27.58
2018-06-20T17:24:07.761Z,27.45
2018-06-20T17:26:36.433Z,27.49
2018-06-20T17:29:04.797Z,27.67
2018-06-20T17:31:33.273Z,27.81
2018-06-20T17:34:01.809Z,27.51
2018-06-20T17:36:30.136Z,27.42
2018-06-20T17:38:58.765Z,27.49
2018-06-20T17:41:27.341Z,27.46
2018-06-20T17:43:55.722Z,27.42
2018-06-20T17:46:24.431Z,27.44
2018-06-20T17:48:53.155Z,27.48
2018-06-20T17:51:21.774Z,27.55
2018-06-20T17:53:51.895Z,27.65
2018-06-20T17:56:20.822Z,27.51
2018-06-20T17:58:49.665Z,27.28
2018-06-20T18:01:18.293Z,27.06
2018-06-20T18:03:48.498Z,27.09
2018-06-20T18:06:22.366Z,27.04
2018-06-20T18:08:56.236Z,27.02
2018-06-20T18:11:29.772Z,26.96
2018-06-20T18:14:03.819Z,26.93
2018-06-20T18:16:38.221Z,26.90
2018-06-20T18:19:06.926Z,26.78
2018-06-20T18:21:39.324Z,26.68
2018-06-20T18:24:11.867Z,26.65
2018-06-20T18:26:41.745Z,26.72
2018-06-20T18:29:10.940Z,26.63
2018-06-20T18:31:39.842Z,26.49
2018-06-20T18:34:08.322Z,26.27
2018-06-20T18:36:37.011Z,26.25
2018-06-20T18:39:07.441Z,26.12
2018-06-20T18:41:35.754Z,26.00
2018-06-20T18:44:06.200Z,25.89
2018-06-20T18:46:34.935Z,25.87
2018-06-20T18:49:03.990Z,25.95
2018-06-20T18:51:32.326Z,25.91
2018-06-20T18:54:01.658Z,25.88
2018-06-20T18:56:30.859Z,25.88
2018-06-20T18:59:04.996Z,25.77
2018-06-20T19:01:38.969Z,25.78
2018-06-20T19:04:18.390Z,25.72
2018-06-20T19:06:52.401Z,25.79
2018-06-20T19:09:23.796Z,25.76
2018-06-20T19:11:52.229Z,25.67
2018-06-20T19:14:20.889Z,25.67
2018-06-20T19:16:50.573Z,25.76
2018-06-20T19:19:20.693Z,25.79
2018-06-20T19:21:49.800Z,25.73
2018-06-20T19:24:19.057Z,25.53
2018-06-20T19:26:48.053Z,25.54
2018-06-20T19:29:16.449Z,25.58
2018-06-20T19:31:45.373Z,25.55
2018-06-20T19:34:15.202Z,25.25
2018-06-20T19:36:44.329Z,25.23
2018-06-20T19:39:19.234Z,25.29
2018-06-20T19:41:50.084Z,25.28
2018-06-20T19:44:23.926Z,25.09
2018-06-20T19:46:52.877Z,24.96
2018-06-20T19:49:21.226Z,24.93
2018-06-20T19:51:49.591Z,24.80
2018-06-20T19:54:18.074Z,24.70
2018-06-20T19:56:46.337Z,24.75
2018-06-20T19:59:14.682Z,24.86
2018-06-20T20:01:44.952Z,24.78
2018-06-20T20:04:13.418Z,24.44
2018-06-20T20:06:41.926Z,24.48
2018-06-20T20:09:10.410Z,24.52
2018-06-20T20:11:39.365Z,24.51
2018-06-20T20:14:08.880Z,24.52
2018-06-20T20:16:37.562Z,24.50
2018-06-20T20:19:05.885Z,24.40
2018-06-20T20:21:34.781Z,24.40
2018-06-20T20:24:03.346Z,24.13
2018-06-20T20:26:31.743Z,24.07
2018-06-20T20:29:00.039Z,23.85
2018-06-20T20:31:28.484Z,23.88
2018-06-20T20:33:57.015Z,23.97
2018-06-20T20:36:25.459Z,23.99
2018-06-20T20:38:53.731Z,23.87
2018-06-20T20:41:22.119Z,23.68
2018-06-20T20:43:50.389Z,23.64
2018-06-20T20:46:18.795Z,23.71
2018-06-20T20:48:47.154Z,23.81
2018-06-20T20:51:15.620Z,23.46
2018-06-20T20:53:43.912Z,23.58
2018-06-20T20:56:15.370Z,23.73
2018-06-20T20:58:43.730Z,23.70
2018-06-20T21:01:12.137Z,23.80
2018-06-20T21:03:40.494Z,23.66
2018-06-20T21:06:09.041Z,23.54
2018-06-20T21:08:37.484Z,23.45
2018-06-20T21:11:05.831Z,23.44
2018-06-20T21:13:34.221Z,23.29
2018-06-20T21:16:02.384Z,23.40
2018-06-20T21:18:30.549Z,23.32
2018-06-20T21:20:58.641Z,23.30
2018-06-20T21:23:27.050Z,23.47
2018-06-20T21:25:55.398Z,23.29
2018-06-20T21:28:23.778Z,23.39
2018-06-20T21:30:52.158Z,23.52
2018-06-20T21:33:20.541Z,23.06
2018-06-20T21:35:48.918Z,23.13
2018-06-20T21:38:17.189Z,23.12
2018-06-20T21:40:45.553Z,23.09
2018-06-20T21:43:13.873Z,22.83
2018-06-20T21:45:42.113Z,22.80
2018-06-20T21:48:10.502Z,22.91
2018-06-20T21:50:38.862Z,22.89
2018-06-20T21:53:07.244Z,22.72
2018-06-20T21:55:35.633Z,22.69
2018-06-20T21:58:04.113Z,22.72
2018-06-20T22:00:32.698Z,22.64
2018-06-20T22:03:01.082Z,22.77
2018-06-20T22:05:29.591Z,22.83
2018-06-20T22:07:57.832Z,22.80
2018-06-20T22:10:26.352Z,22.82
2018-06-20T22:12:54.807Z,22.67
2018-06-20T22:15:23.170Z,22.12
2018-06-20T22:17:51.676Z,22.36
2018-06-20T22:20:20.038Z,22.50
2018-06-20T22:22:48.530Z,22.24
2018-06-20T22:25:16.894Z,22.03
2018-06-20T22:27:45.419Z,22.14
2018-06-20T22:30:13.645Z,22.05
2018-06-20T22:32:42.052Z,21.88
2018-06-20T22:35:10.754Z,21.99
2018-06-20T22:37:39.209Z,21.90
2018-06-20T22:40:07.823Z,21.77
2018-06-20T22:42:36.377Z,21.83
2018-06-20T22:45:04.966Z,21.77
2018-06-20T22:47:33.238Z,21.67
2018-06-20T22:50:01.571Z,21.92
2018-06-20T22:52:29.986Z,21.92
2018-06-20T22:54:58.277Z,21.85
2018-06-20T22:57:26.857Z,21.74
2018-06-20T22:59:56.067Z,21.55
2018-06-20T23:02:24.588Z,21.51
2018-06-20T23:04:53.132Z,21.55
2018-06-20T23:07:21.710Z,21.46
2018-06-20T23:09:50.152Z,21.47
2018-06-20T23:12:18.578Z,21.35
2018-06-20T23:14:47.660Z,21.14
2018-06-20T23:17:16.193Z,21.22
2018-06-20T23:19:44.529Z,21.49
2018-06-20T23:22:13.007Z,21.38
2018-06-20T23:24:41.642Z,21.35
2018-06-20T23:27:10.107Z,21.27
2018-06-20T23:29:38.564Z,21.34
2018-06-20T23:32:06.977Z,21.02
2018-06-20T23:34:36.122Z,20.77
2018-06-20T23:37:04.501Z,20.83
2018-06-20T23:39:33.810Z,20.85
2018-06-20T23:42:02.385Z,20.93
2018-06-20T23:44:30.786Z,20.84
2018-06-20T23:46:59.382Z,20.86
2018-06-20T23:49:27.932Z,20.66
2018-06-20T23:51:56.314Z,20.69
2018-06-20T23:54:25.894Z,20.48
2018-06-20T23:56:54.434Z,20.53
2018-06-20T23:59:22.694Z,20.69
